sensor_id;sensor_type;location;lat;lon;timestamp;temperature;humidity
69393;SHT31;56582;44.624;20.378;2022-07-06T00:01:21;19.58;95.18
69393;SHT31;56582;44.624;20.378;2022-07-06T00:03:46;19.56;95.03
69393;SHT31;56582;44.624;20.378;2022-07-06T00:06:12;19.51;95.55
69393;SHT31;56582;44.624;20.378;2022-07-06T00:08:38;19.58;95.19
69393;SHT31;56582;44.624;20.378;2022-07-06T00:11:04;19.73;94.53
69393;SHT31;56582;44.624;20.378;2022-07-06T00:13:30;19.61;94.93
69393;SHT31;56582;44.624;20.378;2022-07-06T00:15:55;19.76;94.32
69393;SHT31;56582;44.624;20.378;2022-07-06T00:18:21;19.72;94.36
69393;SHT31;56582;44.624;20.378;2022-07-06T00:20:46;19.86;93.82
69393;SHT31;56582;44.624;20.378;2022-07-06T00:23:12;19.80;93.05
69393;SHT31;56582;44.624;20.378;2022-07-06T00:25:37;19.77;93.74
69393;SHT31;56582;44.624;20.378;2022-07-06T00:28:03;19.62;94.26
69393;SHT31;56582;44.624;20.378;2022-07-06T00:30:29;19.70;94.24
69393;SHT31;56582;44.624;20.378;2022-07-06T00:32:54;19.58;94.28
69393;SHT31;56582;44.624;20.378;2022-07-06T00:35:20;19.61;94.35
69393;SHT31;56582;44.624;20.378;2022-07-06T00:37:47;19.58;94.48
69393;SHT31;56582;44.624;20.378;2022-07-06T00:40:12;19.70;94.16
69393;SHT31;56582;44.624;20.378;2022-07-06T00:42:43;19.73;94.13
69393;SHT31;56582;44.624;20.378;2022-07-06T00:45:09;19.61;94.18
69393;SHT31;56582;44.624;20.378;2022-07-06T00:47:36;19.67;93.96
69393;SHT31;56582;44.624;20.378;2022-07-06T00:50:04;19.80;93.74
69393;SHT31;56582;44.624;20.378;2022-07-06T00:53:05;19.80;94.06
69393;SHT31;56582;44.624;20.378;2022-07-06T00:55:31;19.73;93.98
69393;SHT31;56582;44.624;20.378;2022-07-06T00:57:57;19.67;94.01
69393;SHT31;56582;44.624;20.378;2022-07-06T01:00:25;19.72;94.07
69393;SHT31;56582;44.624;20.378;2022-07-06T01:02:51;19.69;93.69
69393;SHT31;56582;44.624;20.378;2022-07-06T01:05:17;19.69;93.00
69393;SHT31;56582;44.624;20.378;2022-07-06T01:07:46;19.77;93.75
69393;SHT31;56582;44.624;20.378;2022-07-06T01:10:15;19.93;92.83
69393;SHT31;56582;44.624;20.378;2022-07-06T01:12:43;19.94;92.17
69393;SHT31;56582;44.624;20.378;2022-07-06T01:15:12;19.96;92.12
69393;SHT31;56582;44.624;20.378;2022-07-06T01:17:39;19.86;91.61
69393;SHT31;56582;44.624;20.378;2022-07-06T01:20:15;19.92;91.70
69393;SHT31;56582;44.624;20.378;2022-07-06T01:22:41;19.94;91.45
69393;SHT31;56582;44.624;20.378;2022-07-06T01:25:08;19.86;91.61
69393;SHT31;56582;44.624;20.378;2022-07-06T01:27:38;19.79;91.88
69393;SHT31;56582;44.624;20.378;2022-07-06T01:30:10;19.79;91.96
69393;SHT31;56582;44.624;20.378;2022-07-06T01:32:36;19.80;91.97
69393;SHT31;56582;44.624;20.378;2022-07-06T01:35:03;19.56;92.80
69393;SHT31;56582;44.624;20.378;2022-07-06T01:37:28;19.56;92.15
69393;SHT31;56582;44.624;20.378;2022-07-06T01:39:58;19.42;92.72
69393;SHT31;56582;44.624;20.378;2022-07-06T01:42:25;19.82;92.12
69393;SHT31;56582;44.624;20.378;2022-07-06T01:44:50;19.55;92.10
69393;SHT31;56582;44.624;20.378;2022-07-06T01:47:16;19.72;91.98
69393;SHT31;56582;44.624;20.378;2022-07-06T01:49:41;19.58;92.24
69393;SHT31;56582;44.624;20.378;2022-07-06T01:52:07;19.79;92.41
69393;SHT31;56582;44.624;20.378;2022-07-06T01:54:32;19.80;91.83
69393;SHT31;56582;44.624;20.378;2022-07-06T01:56:58;19.58;92.63
69393;SHT31;56582;44.624;20.378;2022-07-06T01:59:23;19.45;93.22
69393;SHT31;56582;44.624;20.378;2022-07-06T02:01:50;19.34;93.58
69393;SHT31;56582;44.624;20.378;2022-07-06T02:04:16;19.55;92.87
69393;SHT31;56582;44.624;20.378;2022-07-06T02:06:41;19.53;92.67
69393;SHT31;56582;44.624;20.378;2022-07-06T02:09:07;19.53;93.18
69393;SHT31;56582;44.624;20.378;2022-07-06T02:11:32;19.69;93.29
69393;SHT31;56582;44.624;20.378;2022-07-06T02:14:00;19.82;92.39
69393;SHT31;56582;44.624;20.378;2022-07-06T02:16:26;19.66;92.88
69393;SHT31;56582;44.624;20.378;2022-07-06T02:18:51;19.56;93.35
69393;SHT31;56582;44.624;20.378;2022-07-06T02:21:17;19.48;93.02
69393;SHT31;56582;44.624;20.378;2022-07-06T02:23:42;19.56;92.94
69393;SHT31;56582;44.624;20.378;2022-07-06T02:26:07;19.48;93.03
69393;SHT31;56582;44.624;20.378;2022-07-06T02:28:33;19.29;93.17
69393;SHT31;56582;44.624;20.378;2022-07-06T02:30:58;19.36;93.41
69393;SHT31;56582;44.624;20.378;2022-07-06T02:33:24;19.44;93.37
69393;SHT31;56582;44.624;20.378;2022-07-06T02:35:50;19.44;92.58
69393;SHT31;56582;44.624;20.378;2022-07-06T02:38:15;19.28;93.48
69393;SHT31;56582;44.624;20.378;2022-07-06T02:40:41;19.28;93.54
69393;SHT31;56582;44.624;20.378;2022-07-06T02:43:08;19.49;93.24
69393;SHT31;56582;44.624;20.378;2022-07-06T02:45:33;19.44;92.67
69393;SHT31;56582;44.624;20.378;2022-07-06T02:47:59;19.36;93.44
69393;SHT31;56582;44.624;20.378;2022-07-06T02:50:25;19.41;93.08
69393;SHT31;56582;44.624;20.378;2022-07-06T02:52:50;19.32;93.44
69393;SHT31;56582;44.624;20.378;2022-07-06T02:55:17;19.16;93.51
69393;SHT31;56582;44.624;20.378;2022-07-06T02:57:44;18.93;94.32
69393;SHT31;56582;44.624;20.378;2022-07-06T03:00:09;18.90;94.53
69393;SHT31;56582;44.624;20.378;2022-07-06T03:02:37;18.86;94.38
69393;SHT31;56582;44.624;20.378;2022-07-06T03:05:02;18.97;94.54
69393;SHT31;56582;44.624;20.378;2022-07-06T03:07:28;18.73;94.69
69393;SHT31;56582;44.624;20.378;2022-07-06T03:09:53;18.61;94.99
69393;SHT31;56582;44.624;20.378;2022-07-06T03:12:19;18.59;95.23
69393;SHT31;56582;44.624;20.378;2022-07-06T03:14:47;18.68;95.28
69393;SHT31;56582;44.624;20.378;2022-07-06T03:17:12;18.53;95.24
69393;SHT31;56582;44.624;20.378;2022-07-06T03:19:38;18.55;94.93
69393;SHT31;56582;44.624;20.378;2022-07-06T03:22:05;18.73;94.49
69393;SHT31;56582;44.624;20.378;2022-07-06T03:24:30;18.81;93.85
69393;SHT31;56582;44.624;20.378;2022-07-06T03:26:56;18.93;93.01
69393;SHT31;56582;44.624;20.378;2022-07-06T03:29:21;18.98;92.58
69393;SHT31;56582;44.624;20.378;2022-07-06T03:31:47;18.67;93.37
69393;SHT31;56582;44.624;20.378;2022-07-06T03:34:14;18.86;92.14
69393;SHT31;56582;44.624;20.378;2022-07-06T03:36:39;19.18;89.91
69393;SHT31;56582;44.624;20.378;2022-07-06T03:39:06;19.07;90.03
69393;SHT31;56582;44.624;20.378;2022-07-06T03:41:32;19.31;90.56
69393;SHT31;56582;44.624;20.378;2022-07-06T03:43:58;19.19;90.83
69393;SHT31;56582;44.624;20.378;2022-07-06T03:46:23;19.35;88.54
69393;SHT31;56582;44.624;20.378;2022-07-06T03:48:49;19.63;85.97
69393;SHT31;56582;44.624;20.378;2022-07-06T03:51:14;19.55;89.28
69393;SHT31;56582;44.624;20.378;2022-07-06T03:53:40;19.45;89.85
69393;SHT31;56582;44.624;20.378;2022-07-06T03:56:05;19.56;88.70
69393;SHT31;56582;44.624;20.378;2022-07-06T03:58:49;19.74;87.38
69393;SHT31;56582;44.624;20.378;2022-07-06T04:01:15;19.90;87.54
69393;SHT31;56582;44.624;20.378;2022-07-06T04:03:40;19.46;89.48
69393;SHT31;56582;44.624;20.378;2022-07-06T04:06:06;19.18;90.87
69393;SHT31;56582;44.624;20.378;2022-07-06T04:08:32;18.84;91.99
69393;SHT31;56582;44.624;20.378;2022-07-06T04:10:57;19.25;91.40
69393;SHT31;56582;44.624;20.378;2022-07-06T04:13:23;18.94;91.85
69393;SHT31;56582;44.624;20.378;2022-07-06T04:15:50;18.71;92.88
69393;SHT31;56582;44.624;20.378;2022-07-06T04:18:16;18.63;93.11
69393;SHT31;56582;44.624;20.378;2022-07-06T04:20:41;18.78;92.47
69393;SHT31;56582;44.624;20.378;2022-07-06T04:23:07;18.74;92.77
69393;SHT31;56582;44.624;20.378;2022-07-06T04:40:08;18.06;94.45
69393;SHT31;56582;44.624;20.378;2022-07-06T04:42:33;18.28;94.28
69393;SHT31;56582;44.624;20.378;2022-07-06T04:44:59;18.12;94.29
69393;SHT31;56582;44.624;20.378;2022-07-06T04:47:24;18.09;94.50
69393;SHT31;56582;44.624;20.378;2022-07-06T04:49:50;18.24;93.85
69393;SHT31;56582;44.624;20.378;2022-07-06T04:52:15;18.30;93.79
69393;SHT31;56582;44.624;20.378;2022-07-06T04:54:41;18.61;93.45
69393;SHT31;56582;44.624;20.378;2022-07-06T04:57:06;18.90;92.85
69393;SHT31;56582;44.624;20.378;2022-07-06T04:59:32;18.91;92.74
69393;SHT31;56582;44.624;20.378;2022-07-06T05:01:57;18.91;92.90
69393;SHT31;56582;44.624;20.378;2022-07-06T05:04:22;19.04;92.84
69393;SHT31;56582;44.624;20.378;2022-07-06T05:06:49;19.14;92.39
69393;SHT31;56582;44.624;20.378;2022-07-06T05:09:15;19.34;91.84
69393;SHT31;56582;44.624;20.378;2022-07-06T05:11:40;19.34;91.67
69393;SHT31;56582;44.624;20.378;2022-07-06T05:14:06;19.35;91.76
69393;SHT31;56582;44.624;20.378;2022-07-06T05:16:32;19.35;91.79
69393;SHT31;56582;44.624;20.378;2022-07-06T05:18:58;19.58;91.97
69393;SHT31;56582;44.624;20.378;2022-07-06T05:21:23;19.72;90.89
69393;SHT31;56582;44.624;20.378;2022-07-06T05:23:49;19.51;91.45
69393;SHT31;56582;44.624;20.378;2022-07-06T05:26:14;19.80;90.31
69393;SHT31;56582;44.624;20.378;2022-07-06T05:28:40;19.73;90.55
69393;SHT31;56582;44.624;20.378;2022-07-06T05:31:05;19.90;89.86
69393;SHT31;56582;44.624;20.378;2022-07-06T05:33:31;20.20;89.49
69393;SHT31;56582;44.624;20.378;2022-07-06T05:35:56;20.30;89.68
69393;SHT31;56582;44.624;20.378;2022-07-06T05:38:22;20.27;88.63
69393;SHT31;56582;44.624;20.378;2022-07-06T05:40:47;20.48;88.78
69393;SHT31;56582;44.624;20.378;2022-07-06T05:43:13;20.51;88.99
69393;SHT31;56582;44.624;20.378;2022-07-06T05:45:38;20.47;86.78
69393;SHT31;56582;44.624;20.378;2022-07-06T05:48:04;20.58;85.69
69393;SHT31;56582;44.624;20.378;2022-07-06T05:50:48;20.47;85.77
69393;SHT31;56582;44.624;20.378;2022-07-06T05:53:13;20.52;86.97
69393;SHT31;56582;44.624;20.378;2022-07-06T05:59:00;20.53;86.04
69393;SHT31;56582;44.624;20.378;2022-07-06T06:01:26;20.32;85.54
69393;SHT31;56582;44.624;20.378;2022-07-06T06:03:51;20.37;87.20
69393;SHT31;56582;44.624;20.378;2022-07-06T06:06:17;20.55;85.82
69393;SHT31;56582;44.624;20.378;2022-07-06T06:08:42;20.55;85.26
69393;SHT31;56582;44.624;20.378;2022-07-06T06:11:08;20.64;85.10
69393;SHT31;56582;44.624;20.378;2022-07-06T06:13:33;20.65;84.02
69393;SHT31;56582;44.624;20.378;2022-07-06T06:15:58;20.40;84.86
69393;SHT31;56582;44.624;20.378;2022-07-06T06:18:24;20.37;85.47
69393;SHT31;56582;44.624;20.378;2022-07-06T06:20:49;20.16;85.00
69393;SHT31;56582;44.624;20.378;2022-07-06T06:23:15;20.28;85.01
69393;SHT31;56582;44.624;20.378;2022-07-06T06:25:40;20.20;85.37
69393;SHT31;56582;44.624;20.378;2022-07-06T06:28:08;20.37;86.22
69393;SHT31;56582;44.624;20.378;2022-07-06T06:30:35;20.45;84.81
69393;SHT31;56582;44.624;20.378;2022-07-06T06:33:08;20.79;84.97
69393;SHT31;56582;44.624;20.378;2022-07-06T06:35:34;20.49;84.01
69393;SHT31;56582;44.624;20.378;2022-07-06T06:38:00;20.89;83.58
69393;SHT31;56582;44.624;20.378;2022-07-06T06:40:25;20.82;83.79
69393;SHT31;56582;44.624;20.378;2022-07-06T06:42:51;21.03;83.22
69393;SHT31;56582;44.624;20.378;2022-07-06T06:45:16;21.04;83.08
69393;SHT31;56582;44.624;20.378;2022-07-06T06:47:42;21.41;82.68
69393;SHT31;56582;44.624;20.378;2022-07-06T06:50:07;21.13;81.43
69393;SHT31;56582;44.624;20.378;2022-07-06T06:52:33;21.07;82.05
69393;SHT31;56582;44.624;20.378;2022-07-06T06:54:58;20.96;82.47
69393;SHT31;56582;44.624;20.378;2022-07-06T06:57:25;21.29;82.26
69393;SHT31;56582;44.624;20.378;2022-07-06T06:59:50;21.27;82.38
69393;SHT31;56582;44.624;20.378;2022-07-06T07:02:15;21.77;80.90
69393;SHT31;56582;44.624;20.378;2022-07-06T07:04:41;22.08;79.22
69393;SHT31;56582;44.624;20.378;2022-07-06T07:07:07;21.79;79.01
69393;SHT31;56582;44.624;20.378;2022-07-06T07:09:32;21.85;78.01
69393;SHT31;56582;44.624;20.378;2022-07-06T07:11:57;21.81;78.46
69393;SHT31;56582;44.624;20.378;2022-07-06T07:14:23;22.10;78.62
69393;SHT31;56582;44.624;20.378;2022-07-06T07:16:48;22.36;77.61
69393;SHT31;56582;44.624;20.378;2022-07-06T07:19:14;22.52;76.44
69393;SHT31;56582;44.624;20.378;2022-07-06T07:21:39;22.97;76.19
69393;SHT31;56582;44.624;20.378;2022-07-06T07:24:05;22.70;76.60
69393;SHT31;56582;44.624;20.378;2022-07-06T07:26:31;23.00;75.02
69393;SHT31;56582;44.624;20.378;2022-07-06T07:28:56;23.01;75.92
69393;SHT31;56582;44.624;20.378;2022-07-06T07:31:21;22.86;74.50
69393;SHT31;56582;44.624;20.378;2022-07-06T07:33:47;22.68;74.26
69393;SHT31;56582;44.624;20.378;2022-07-06T07:36:12;22.64;76.55
69393;SHT31;56582;44.624;20.378;2022-07-06T07:38:38;23.07;73.85
69393;SHT31;56582;44.624;20.378;2022-07-06T07:41:03;23.19;75.75
69393;SHT31;56582;44.624;20.378;2022-07-06T07:43:30;23.25;74.36
69393;SHT31;56582;44.624;20.378;2022-07-06T07:45:56;23.51;72.40
69393;SHT31;56582;44.624;20.378;2022-07-06T07:48:21;23.59;72.33
69393;SHT31;56582;44.624;20.378;2022-07-06T07:50:47;23.39;71.45
69393;SHT31;56582;44.624;20.378;2022-07-06T07:53:12;23.31;73.77
69393;SHT31;56582;44.624;20.378;2022-07-06T07:55:40;23.56;70.76
69393;SHT31;56582;44.624;20.378;2022-07-06T07:58:06;23.46;71.40
69393;SHT31;56582;44.624;20.378;2022-07-06T08:00:31;23.43;70.64
69393;SHT31;56582;44.624;20.378;2022-07-06T08:02:57;23.29;73.04
69393;SHT31;56582;44.624;20.378;2022-07-06T08:05:22;23.33;71.48
69393;SHT31;56582;44.624;20.378;2022-07-06T08:07:48;23.32;72.22
69393;SHT31;56582;44.624;20.378;2022-07-06T08:10:13;24.00;73.05
69393;SHT31;56582;44.624;20.378;2022-07-06T08:12:39;23.69;69.98
69393;SHT31;56582;44.624;20.378;2022-07-06T08:15:05;23.53;72.30
69393;SHT31;56582;44.624;20.378;2022-07-06T08:17:31;23.69;72.16
69393;SHT31;56582;44.624;20.378;2022-07-06T08:19:57;23.97;71.27
69393;SHT31;56582;44.624;20.378;2022-07-06T08:22:22;23.61;70.77
69393;SHT31;56582;44.624;20.378;2022-07-06T08:24:48;23.67;71.76
69393;SHT31;56582;44.624;20.378;2022-07-06T08:27:13;23.39;71.35
69393;SHT31;56582;44.624;20.378;2022-07-06T08:29:39;23.55;70.41
69393;SHT31;56582;44.624;20.378;2022-07-06T08:32:05;23.35;70.20
69393;SHT31;56582;44.624;20.378;2022-07-06T08:34:30;23.21;71.43
69393;SHT31;56582;44.624;20.378;2022-07-06T08:36:56;23.43;71.32
69393;SHT31;56582;44.624;20.378;2022-07-06T08:39:21;23.79;69.72
69393;SHT31;56582;44.624;20.378;2022-07-06T08:41:47;23.83;70.68
69393;SHT31;56582;44.624;20.378;2022-07-06T08:44:17;23.49;70.53
69393;SHT31;56582;44.624;20.378;2022-07-06T08:46:43;23.22;71.82
69393;SHT31;56582;44.624;20.378;2022-07-06T08:49:13;23.70;71.50
69393;SHT31;56582;44.624;20.378;2022-07-06T08:51:38;23.80;70.55
69393;SHT31;56582;44.624;20.378;2022-07-06T08:54:05;23.65;70.40
69393;SHT31;56582;44.624;20.378;2022-07-06T08:56:32;23.94;70.09
69393;SHT31;56582;44.624;20.378;2022-07-06T08:58:58;23.72;71.12
69393;SHT31;56582;44.624;20.378;2022-07-06T09:01:23;23.62;71.76
69393;SHT31;56582;44.624;20.378;2022-07-06T09:03:50;23.69;71.59
69393;SHT31;56582;44.624;20.378;2022-07-06T09:06:16;24.22;70.79
69393;SHT31;56582;44.624;20.378;2022-07-06T09:08:45;23.93;70.20
69393;SHT31;56582;44.624;20.378;2022-07-06T09:11:12;24.01;70.37
69393;SHT31;56582;44.624;20.378;2022-07-06T09:13:37;24.17;69.75
69393;SHT31;56582;44.624;20.378;2022-07-06T09:16:10;24.52;69.47
69393;SHT31;56582;44.624;20.378;2022-07-06T09:18:38;24.61;68.32
69393;SHT31;56582;44.624;20.378;2022-07-06T09:21:04;24.80;69.29
69393;SHT31;56582;44.624;20.378;2022-07-06T09:23:30;24.13;68.35
69393;SHT31;56582;44.624;20.378;2022-07-06T09:25:56;24.06;67.87
69393;SHT31;56582;44.624;20.378;2022-07-06T09:28:21;24.40;67.12
69393;SHT31;56582;44.624;20.378;2022-07-06T09:30:46;24.69;67.70
69393;SHT31;56582;44.624;20.378;2022-07-06T09:33:17;24.37;68.25
69393;SHT31;56582;44.624;20.378;2022-07-06T09:35:43;24.09;68.08
69393;SHT31;56582;44.624;20.378;2022-07-06T09:38:14;24.03;70.02
69393;SHT31;56582;44.624;20.378;2022-07-06T09:40:42;24.52;67.27
69393;SHT31;56582;44.624;20.378;2022-07-06T09:45:41;24.98;65.62
69393;SHT31;56582;44.624;20.378;2022-07-06T09:48:12;24.92;66.28
69393;SHT31;56582;44.624;20.378;2022-07-06T09:50:44;24.96;66.78
69393;SHT31;56582;44.624;20.378;2022-07-06T09:53:11;24.96;66.05
69393;SHT31;56582;44.624;20.378;2022-07-06T09:55:37;24.44;66.23
69393;SHT31;56582;44.624;20.378;2022-07-06T09:58:03;24.47;65.94
69393;SHT31;56582;44.624;20.378;2022-07-06T10:00:28;24.37;66.23
69393;SHT31;56582;44.624;20.378;2022-07-06T10:02:54;24.51;67.40
69393;SHT31;56582;44.624;20.378;2022-07-06T10:05:21;24.78;66.56
69393;SHT31;56582;44.624;20.378;2022-07-06T10:07:56;24.49;66.96
69393;SHT31;56582;44.624;20.378;2022-07-06T10:10:26;24.58;66.22
69393;SHT31;56582;44.624;20.378;2022-07-06T10:12:57;24.86;66.20
69393;SHT31;56582;44.624;20.378;2022-07-06T10:15:25;24.96;66.72
69393;SHT31;56582;44.624;20.378;2022-07-06T10:17:51;25.13;65.19
69393;SHT31;56582;44.624;20.378;2022-07-06T10:20:18;25.46;63.81
69393;SHT31;56582;44.624;20.378;2022-07-06T10:22:46;25.53;61.46
69393;SHT31;56582;44.624;20.378;2022-07-06T10:25:14;25.86;61.69
69393;SHT31;56582;44.624;20.378;2022-07-06T10:27:40;26.35;61.65
69393;SHT31;56582;44.624;20.378;2022-07-06T10:30:08;26.15;61.68
69393;SHT31;56582;44.624;20.378;2022-07-06T10:32:35;26.16;62.63
69393;SHT31;56582;44.624;20.378;2022-07-06T10:35:00;26.56;59.81
69393;SHT31;56582;44.624;20.378;2022-07-06T10:37:27;26.11;60.42
69393;SHT31;56582;44.624;20.378;2022-07-06T10:39:53;26.21;58.64
69393;SHT31;56582;44.624;20.378;2022-07-06T10:50:48;25.78;62.35
69393;SHT31;56582;44.624;20.378;2022-07-06T10:53:21;25.38;61.53
69393;SHT31;56582;44.624;20.378;2022-07-06T10:55:49;25.88;60.88
69393;SHT31;56582;44.624;20.378;2022-07-06T11:01:07;26.31;59.12
69393;SHT31;56582;44.624;20.378;2022-07-06T11:13:51;25.43;61.54
69393;SHT31;56582;44.624;20.378;2022-07-06T11:16:17;25.80;60.47
69393;SHT31;56582;44.624;20.378;2022-07-06T11:18:48;25.89;60.27
69393;SHT31;56582;44.624;20.378;2022-07-06T11:23:46;25.58;60.22
69393;SHT31;56582;44.624;20.378;2022-07-06T11:26:13;25.91;61.64
69393;SHT31;56582;44.624;20.378;2022-07-06T11:28:38;26.46;61.33
69393;SHT31;56582;44.624;20.378;2022-07-06T11:31:04;26.57;59.25
69393;SHT31;56582;44.624;20.378;2022-07-06T11:33:30;26.53;58.18
69393;SHT31;56582;44.624;20.378;2022-07-06T11:36:31;26.54;59.55
69393;SHT31;56582;44.624;20.378;2022-07-06T11:38:57;26.59;58.70
69393;SHT31;56582;44.624;20.378;2022-07-06T11:41:23;25.89;58.79
69393;SHT31;56582;44.624;20.378;2022-07-06T11:43:48;25.58;60.21
69393;SHT31;56582;44.624;20.378;2022-07-06T11:48:51;25.95;57.98
69393;SHT31;56582;44.624;20.378;2022-07-06T11:51:18;26.52;58.43
69393;SHT31;56582;44.624;20.378;2022-07-06T11:53:48;26.46;56.88
69393;SHT31;56582;44.624;20.378;2022-07-06T11:56:17;26.22;58.39
69393;SHT31;56582;44.624;20.378;2022-07-06T11:58:45;26.22;58.12
69393;SHT31;56582;44.624;20.378;2022-07-06T12:01:13;25.70;58.64
69393;SHT31;56582;44.624;20.378;2022-07-06T12:03:39;25.70;61.07
69393;SHT31;56582;44.624;20.378;2022-07-06T12:06:06;25.48;59.54
69393;SHT31;56582;44.624;20.378;2022-07-06T12:08:44;25.71;59.38
69393;SHT31;56582;44.624;20.378;2022-07-06T12:11:10;25.89;59.10
69393;SHT31;56582;44.624;20.378;2022-07-06T12:13:37;25.88;59.30
69393;SHT31;56582;44.624;20.378;2022-07-06T12:16:12;25.61;59.97
69393;SHT31;56582;44.624;20.378;2022-07-06T12:18:39;25.75;60.33
69393;SHT31;56582;44.624;20.378;2022-07-06T12:21:08;25.86;62.24
69393;SHT31;56582;44.624;20.378;2022-07-06T12:23:41;26.02;58.88
69393;SHT31;56582;44.624;20.378;2022-07-06T12:26:07;26.36;58.79
69393;SHT31;56582;44.624;20.378;2022-07-06T12:28:34;26.46;58.14
69393;SHT31;56582;44.624;20.378;2022-07-06T12:30:59;26.90;57.37
69393;SHT31;56582;44.624;20.378;2022-07-06T12:33:25;26.93;55.18
69393;SHT31;56582;44.624;20.378;2022-07-06T12:35:52;27.29;55.86
69393;SHT31;56582;44.624;20.378;2022-07-06T12:38:25;27.29;56.66
69393;SHT31;56582;44.624;20.378;2022-07-06T12:40:52;27.12;55.28
69393;SHT31;56582;44.624;20.378;2022-07-06T12:43:40;26.63;57.38
69393;SHT31;56582;44.624;20.378;2022-07-06T12:48:56;26.42;58.95
69393;SHT31;56582;44.624;20.378;2022-07-06T12:51:22;26.93;57.80
69393;SHT31;56582;44.624;20.378;2022-07-06T12:53:47;27.05;56.80
69393;SHT31;56582;44.624;20.378;2022-07-06T12:56:14;26.67;56.23
69393;SHT31;56582;44.624;20.378;2022-07-06T12:58:39;26.05;57.23
69393;SHT31;56582;44.624;20.378;2022-07-06T13:01:05;26.05;57.45
69393;SHT31;56582;44.624;20.378;2022-07-06T13:03:40;26.06;56.91
69393;SHT31;56582;44.624;20.378;2022-07-06T13:06:06;26.11;57.32
69393;SHT31;56582;44.624;20.378;2022-07-06T13:08:31;26.22;58.12
69393;SHT31;56582;44.624;20.378;2022-07-06T13:10:57;26.47;59.27
69393;SHT31;56582;44.624;20.378;2022-07-06T13:13:22;26.83;56.14
69393;SHT31;56582;44.624;20.378;2022-07-06T13:15:48;27.02;56.67
69393;SHT31;56582;44.624;20.378;2022-07-06T13:18:18;27.42;54.53
69393;SHT31;56582;44.624;20.378;2022-07-06T13:20:44;27.65;54.88
69393;SHT31;56582;44.624;20.378;2022-07-06T13:23:10;27.79;54.03
69393;SHT31;56582;44.624;20.378;2022-07-06T13:25:36;28.03;53.78
69393;SHT31;56582;44.624;20.378;2022-07-06T13:28:01;27.43;53.03
69393;SHT31;56582;44.624;20.378;2022-07-06T13:30:29;27.38;53.22
69393;SHT31;56582;44.624;20.378;2022-07-06T13:32:56;27.50;53.05
69393;SHT31;56582;44.624;20.378;2022-07-06T13:35:22;27.70;53.28
69393;SHT31;56582;44.624;20.378;2022-07-06T13:37:47;27.82;51.71
69393;SHT31;56582;44.624;20.378;2022-07-06T13:40:14;27.94;52.96
69393;SHT31;56582;44.624;20.378;2022-07-06T13:42:39;27.63;52.46
69393;SHT31;56582;44.624;20.378;2022-07-06T13:45:05;27.45;51.96
69393;SHT31;56582;44.624;20.378;2022-07-06T13:47:31;27.35;54.26
69393;SHT31;56582;44.624;20.378;2022-07-06T13:49:57;27.35;53.44
69393;SHT31;56582;44.624;20.378;2022-07-06T13:52:22;27.56;54.31
69393;SHT31;56582;44.624;20.378;2022-07-06T13:54:47;27.31;54.60
69393;SHT31;56582;44.624;20.378;2022-07-06T13:57:13;27.20;54.01
69393;SHT31;56582;44.624;20.378;2022-07-06T13:59:38;27.41;52.04
69393;SHT31;56582;44.624;20.378;2022-07-06T14:02:05;27.20;53.07
69393;SHT31;56582;44.624;20.378;2022-07-06T14:04:30;26.93;53.15
69393;SHT31;56582;44.624;20.378;2022-07-06T14:06:56;26.74;54.70
69393;SHT31;56582;44.624;20.378;2022-07-06T14:09:22;27.22;53.34
69393;SHT31;56582;44.624;20.378;2022-07-06T14:11:48;27.12;54.15
69393;SHT31;56582;44.624;20.378;2022-07-06T14:14:14;27.28;53.25
69393;SHT31;56582;44.624;20.378;2022-07-06T14:16:40;27.20;53.77
69393;SHT31;56582;44.624;20.378;2022-07-06T14:19:06;27.45;53.31
69393;SHT31;56582;44.624;20.378;2022-07-06T14:21:32;27.43;52.90
69393;SHT31;56582;44.624;20.378;2022-07-06T14:23:57;27.50;53.78
69393;SHT31;56582;44.624;20.378;2022-07-06T14:26:23;27.45;53.23
69393;SHT31;56582;44.624;20.378;2022-07-06T14:28:49;27.38;53.51
69393;SHT31;56582;44.624;20.378;2022-07-06T14:31:14;27.56;53.92
69393;SHT31;56582;44.624;20.378;2022-07-06T14:33:40;27.50;54.69
69393;SHT31;56582;44.624;20.378;2022-07-06T14:36:05;27.07;54.89
69393;SHT31;56582;44.624;20.378;2022-07-06T14:38:31;26.79;55.49
69393;SHT31;56582;44.624;20.378;2022-07-06T14:40:56;27.02;56.03
69393;SHT31;56582;44.624;20.378;2022-07-06T14:43:22;27.12;55.76
69393;SHT31;56582;44.624;20.378;2022-07-06T14:45:48;27.10;55.31
69393;SHT31;56582;44.624;20.378;2022-07-06T14:48:13;26.59;56.51
69393;SHT31;56582;44.624;20.378;2022-07-06T14:50:39;26.37;58.09
69393;SHT31;56582;44.624;20.378;2022-07-06T14:53:04;26.18;58.29
69393;SHT31;56582;44.624;20.378;2022-07-06T14:55:30;26.23;58.97
69393;SHT31;56582;44.624;20.378;2022-07-06T14:57:56;26.06;58.63
69393;SHT31;56582;44.624;20.378;2022-07-06T15:00:22;26.23;59.04
69393;SHT31;56582;44.624;20.378;2022-07-06T15:02:47;26.46;57.95
69393;SHT31;56582;44.624;20.378;2022-07-06T15:05:13;26.54;57.33
69393;SHT31;56582;44.624;20.378;2022-07-06T15:07:38;26.70;57.63
69393;SHT31;56582;44.624;20.378;2022-07-06T15:10:05;26.81;56.80
69393;SHT31;56582;44.624;20.378;2022-07-06T15:12:31;27.04;56.53
69393;SHT31;56582;44.624;20.378;2022-07-06T15:14:57;27.14;57.32
69393;SHT31;56582;44.624;20.378;2022-07-06T15:17:22;26.97;57.16
69393;SHT31;56582;44.624;20.378;2022-07-06T15:19:48;26.70;58.00
69393;SHT31;56582;44.624;20.378;2022-07-06T15:22:13;26.73;57.84
69393;SHT31;56582;44.624;20.378;2022-07-06T15:24:39;26.47;60.14
69393;SHT31;56582;44.624;20.378;2022-07-06T15:27:05;26.46;58.64
69393;SHT31;56582;44.624;20.378;2022-07-06T15:29:31;26.29;58.37
69393;SHT31;56582;44.624;20.378;2022-07-06T15:31:57;26.50;58.69
69393;SHT31;56582;44.624;20.378;2022-07-06T15:34:22;26.59;59.54
69393;SHT31;56582;44.624;20.378;2022-07-06T15:36:48;26.56;58.78
69393;SHT31;56582;44.624;20.378;2022-07-06T15:39:14;26.69;58.56
69393;SHT31;56582;44.624;20.378;2022-07-06T15:41:40;26.69;59.08
69393;SHT31;56582;44.624;20.378;2022-07-06T15:44:05;26.42;59.61
69393;SHT31;56582;44.624;20.378;2022-07-06T15:46:31;26.29;60.19
69393;SHT31;56582;44.624;20.378;2022-07-06T15:48:56;25.98;60.96
69393;SHT31;56582;44.624;20.378;2022-07-06T15:51:22;26.15;61.10
69393;SHT31;56582;44.624;20.378;2022-07-06T15:53:47;26.42;60.74
69393;SHT31;56582;44.624;20.378;2022-07-06T15:56:13;26.54;61.29
69393;SHT31;56582;44.624;20.378;2022-07-06T15:58:39;26.50;60.14
69393;SHT31;56582;44.624;20.378;2022-07-06T16:01:04;26.67;60.40